航空気象通報

ウインドサーファーのための航空気象通報による風予報です。

3/31-4/1の航空気象通報(国内、海外)

2011年03月31日 22時58分06秒 | TAF

羽田空港
TAF RJTT 310837Z 3109/0112 35014KT 9999 FEW030
      BECMG 3121/3124 07006KT
      BECMG 0103/0106 19015KT
      TEMPO 0106/0112 19020G30KT
日本時間31日18時-1日06時:350度から14ノットの風
06-09時:風が変化
09-12時:070度から6ノットの風
12-15時:風が変化
15-21時:190度から15ノットの風
但し、30日18-21時の間:一時、190度から20ノット、突風30ノット

富士山静岡空港
TAF RJNS 310838Z 3109/0112 28018KT 9999 FEW030
      TEMPO 3109/3112 28020G32KT
      BECMG 3112/3114 32006KT
      BECMG 0100/0103 18010KT
      BECMG 0106/0109 26008KT
日本時間31日18-21時:280度から18ノットの風
但し、18-21時の間:280度から20ノット、突風32ノット
21-23時:風が変化
23時-1日09時:320度から6ノットの風
09-12時:風が変化
12-15時:180度から10ノットの風
15-18時:風が変化
18-21時:260度から8ノットの風

那覇空港
TAF ROAH 310843Z 3109/0112 08007KT 9999 FEW030 SCT045
      BECMG 0100/0103 10010KT
日本時間31日18時-1日09時:080度から7ノットの風
09-12時:風が変化
12-21時:100度から10ノットの風

マウイのカフルイ空港
TAF PHOG 311122Z 3112/0112 12005KT P6SM FEW035 SCT050
     FM311800 06015G24KT P6SM FEW040
     FM010400 06012KT P6SM FEW040
     FM010800 11005KT P6SM FEW035 SCT050
ハワイ時間31日02-08時:120度から5ノットの風
08-18時:060度から15ノット、突風24ノット
18-22時:060度から12ノットの風
22時-1日02時:110度から5ノットの風

サイパン空港
TAF PGSN 311120Z 3112/0112 06012KT P6SM VCSH SCT025
マリアナ時間31日22時-1日22時:060度から12ノットの風

コメント
この記事をはてなブックマークに追加

3/29-3/30の航空気象通報(国内、海外)

2011年03月29日 23時47分01秒 | TAF

羽田空港
TAF RJTT 290846Z 2909/3012 18012KT 9999 FEW020 SCT030
      BECMG 2912/2914 34010KT
      BECMG 3000/3003 12008KT
      BECMG 3009/3012 04012KT
      TEMPO 3009/3012 4000 SHRA
日本時間29日18-21時:180度から12ノットの風
21-23時:風が変化
23時-30日09時:340度から10ノットの風
09-12時:風が変化
12-18時:340度から8ノットの風
18-21時:風が変化
21時:040度から12ノットの風

但し、30日18-21時の間:一時、

富士山静岡空港
TAF RJNS 290839Z 2909/3012 27012KT 9999 FEW030
      TEMPO 3006/3009 27018G28KT
日本時間29日18時-30日21時:270度から12ノットの風
但し、30日15-18時の間:270度から18ノット、突風28ノット

那覇空港
TAF ROAH 290841Z 2909/3012 01009KT 9999 FEW040
日本時間29日18時-30日21時:010度から9ノットの風

マウイのカフルイ空港
TAF PHOG 291137Z 2912/3012 06010G17KT P6SM SCT060
     FM292100 06018G26KT P6SM FEW040 SCT060
     FM300600 06010G17KT P6SM FEW040 SCT060
ハワイ時間29日02-11時:060度から10ノット、突風17ノット
11-20時:060度から15ノット、突風23ノット
20時-30日02時:060度から10ノット、突風17ノット

サイパン空港
TAF PGSN 291121Z 2912/3012 09012KT P6SM VCSH SCT015
マリアナ時間29日22時-30日22時:090度から12ノットの風

コメント
この記事をはてなブックマークに追加

3/28-3/29の航空気象通報(国内、海外)

2011年03月29日 00時14分52秒 | TAF

羽田空港
TAF RJTT 281437Z 2815/2918 30006KT 9999 FEW030
      BECMG 2900/2903 18015KT
      TEMPO 2909/2912 TS SCT020 FEW020CB
      BECMG 2912/2915 34008KT
日本時間29日00-09時:300度から6ノットの風
09-12時:風が変化
12-21時:180度から15ノットの風
21-24時:風が変化
30日00-03時:340度から8ノットの風

但し、29日18-21時の間:一時、

富士山静岡空港
TAF RJNS 281439Z 2815/2918 31007KT 9999 FEW030
      BECMG 2900/2903 23012KT
      BECMG 2915/2918 29008KT
日本時間29日00-09時:310度から7ノットの風
09-12時:風が変化
12-24時:230度から12ノットの風
30日00-03時:風が変化
03時:290度から8ノットの風

那覇空港
TAF ROAH 281452Z 2815/2918 05010KT 9999 FEW035
日本時間29日00時-30日03時:050度から10ノットの風

マウイのカフルイ空港
TAF PHOG 281139Z 2812/2912 05010G18KT P6SM SCT050
     FM282200 06015G23KT P6SM FEW030 SCT050
     FM290600 06010G18KT P6SM SCT050
ハワイ時間28日02-10時:050度から10ノット、突風18ノット
10-20時:060度から15ノット、突風23ノット
20時-29日02時:060度から10ノット、突風18ノット

サイパン空港
TAF PGSN 281120Z 2812/2912 08012KT P6SM VCSH SCT017 SCT030
マリアナ時間28日22時-29日22時:080度から12ノットの風

コメント
この記事をはてなブックマークに追加

3/26-3/27の航空気象通報(国内、海外)

2011年03月26日 23時05分00秒 | TAF

羽田空港
TAF RJTT 260841Z 2609/2712 35022KT 9999 FEW030
      TEMPO 2609/2614 34025G35KT
      BECMG 2618/2621 01010KT
      BECMG 2703/2706 16008KT
      BECMG 2709/2712 02015KT
日本時間26日18-27日03時:350度から22ノットの風
但し、26日18-23時の間:一時、340度から25ノット、突風35ノット
03-06時:風が変化
06-12時:010度から10ノットの風
12-15時:風が変化
15-18時:160度から8ノットの風
18-21時:風が変化
21時:020度から15ノットの風

富士山静岡空港
TAF RJNS 260837Z 2609/2712 29016KT 9999 FEW030
      TEMPO 2609/2611 29018G28KT
      BECMG 2700/2703 15008KT
      BECMG 2709/2712 30006KT
日本時間26日18時-27日09時:290度から16ノットの風
但し、26日18-20時の間:一時、290度から18ノット、突風28ノット
09-12時:風が変化
12-18時:150度から8ノットの風
18-21時:風が変化
21時:300度から6ノットの風

那覇空港
TAF ROAH 260839Z 2609/2712 04010KT 9999 FEW030 BKN045
日本時間26日18時-27日21時:040度から10ノットの風

マウイのカフルイ空港
TAF PHOG 261137Z 2612/2712 06012G20KT P6SM FEW040 SCT060
     FM261900 06019G28KT P6SM FEW030 SCT050
     FM270800 06010G18KT P6SM FEW050
ハワイ時間26日02-09時:060度から12ノット、突風20ノット
10-22時:060度から19ノット、突風28ノット
22時-27日02時:060度から10ノット、突風18ノット

サイパン空港
TAF PGSN 261121Z 2612/2712 06011KT P6SM VCSH FEW020 SCT120
マリアナ時間26日22時-27日22時:060度から11ノットの風

コメント
この記事をはてなブックマークに追加

3/24-3/25の航空気象通報(国内、海外)

2011年03月24日 23時18分39秒 | TAF

羽田空港
TAF RJTT 240840Z 2409/2512 14010KT 9999 FEW030
      BECMG 2411/2413 35010KT
      BECMG 2500/2503 18016KT
      BECMG 2509/2512 29006KT
日本時間24日18-20時:140度から10ノットの風
20-22時:風が変化
22時-25日09時:350度から10ノットの風
09-12時:風が変化
12-18時:180度から16ノットの風
18-21時:風が変化
21時:290度から6ノットの風

富士山静岡空港
TAF AMD RJNS 241045Z 2410/2512 27010KT 9999 FEW030
      BECMG 2500/2503 18010KT
      BECMG 2506/2509 22006KT
      TEMPO 2509/2512 4000 -SHRA BR
日本時間24日19時-25日09時:270度から10ノットの風
09-12時:風が変化
12-15時:180度から10ノットの風
15-18時:風が変化
18-21時:220度から6ノットの風

但し、25日18-21時の間:一時、

那覇空港
TAF ROAH 240838Z 2409/2512 06007KT 9999 FEW030 SCT045
      BECMG 2503/2506 01018KT
日本時間24日18時-25日12時:060度から7ノットの風
12-15時:風が変化
15-21時:010度から18ノットの風

マウイのカフルイ空港
TAF PHOG 241120Z 2412/2512 06012G20KT P6SM VCSH FEW025 BKN045
     FM241900 06023G30KT P6SM SCT050
ハワイ時間24日02-09時:060度から12ノット、突風20ノット
09時-25日02時:060度から23ノット、突風30ノット

サイパン空港
TAF PGSN 241120Z 2412/2512 07010KT P6SM VCSH SCT017 SCT120
マリアナ時間23日22時-24日22時:070度から10ノットの風

コメント
この記事をはてなブックマークに追加